createdAt,value
2019-03-03T00:00:39.916Z,11.87
2019-03-03T00:03:08.370Z,17.60
2019-03-03T00:05:36.746Z,14.47
2019-03-03T00:08:05.166Z,12.63
2019-03-03T00:10:33.545Z,9.23
2019-03-03T00:13:01.959Z,16.63
2019-03-03T00:15:30.335Z,15.03
2019-03-03T00:17:58.925Z,16.23
2019-03-03T00:20:27.304Z,15.00
2019-03-03T00:22:55.683Z,9.07
2019-03-03T00:25:24.098Z,21.17
2019-03-03T00:27:52.476Z,13.20
2019-03-03T00:30:21.317Z,13.23
2019-03-03T00:32:49.667Z,16.33
2019-03-03T00:35:18.098Z,13.60
2019-03-03T00:38:04.855Z,13.77
2019-03-03T00:40:50.218Z,10.33
2019-03-03T00:43:29.261Z,14.27
2019-03-03T00:45:59.258Z,14.70
2019-03-03T00:48:35.444Z,14.07
2019-03-03T00:51:11.639Z,14.83
2019-03-03T00:53:53.807Z,11.87
2019-03-03T00:56:32.731Z,16.07
2019-03-03T00:59:08.720Z,13.77
2019-03-03T01:01:50.643Z,14.20
2019-03-03T01:04:26.888Z,9.90
2019-03-03T01:07:11.903Z,10.40
2019-03-03T01:09:44.603Z,18.07
2019-03-03T01:12:20.379Z,13.90
2019-03-03T01:14:52.872Z,11.43
2019-03-03T01:17:26.021Z,12.67
2019-03-03T01:20:04.916Z,14.93
2019-03-03T01:22:34.948Z,15.70
2019-03-03T01:25:04.068Z,14.70
2019-03-03T01:27:32.553Z,10.20
2019-03-03T01:30:00.951Z,11.90
2019-03-03T01:32:29.493Z,14.87
2019-03-03T01:34:57.907Z,16.47
2019-03-03T01:37:26.284Z,9.67
2019-03-03T01:39:54.695Z,15.00
2019-03-03T01:42:23.079Z,15.60
2019-03-03T01:44:51.496Z,13.10
2019-03-03T01:47:19.904Z,11.67
2019-03-03T01:49:48.293Z,13.87
2019-03-03T01:52:16.696Z,12.70
2019-03-03T01:54:45.079Z,12.70
2019-03-03T01:57:13.490Z,14.70
2019-03-03T01:59:41.875Z,15.67
2019-03-03T02:02:10.287Z,16.60
2019-03-03T02:04:38.698Z,12.57
2019-03-03T02:07:07.136Z,19.97
2019-03-03T02:09:35.511Z,12.73
2019-03-03T02:12:03.925Z,13.70
2019-03-03T02:14:32.324Z,15.23
2019-03-03T02:17:00.735Z,20.80
2019-03-03T02:19:29.146Z,18.87
2019-03-03T02:21:57.550Z,11.77
2019-03-03T02:24:25.954Z,13.60
2019-03-03T02:26:55.300Z,15.07
2019-03-03T02:29:23.715Z,18.40
2019-03-03T02:31:52.105Z,17.53
2019-03-03T02:34:20.524Z,21.47
2019-03-03T02:36:49.088Z,19.03
2019-03-03T02:39:17.480Z,15.23
2019-03-03T02:41:45.892Z,21.97
2019-03-03T02:44:14.304Z,16.00
2019-03-03T02:46:42.703Z,13.97
2019-03-03T02:49:11.081Z,17.87
2019-03-03T02:51:39.485Z,18.63
2019-03-03T02:54:07.902Z,17.90
2019-03-03T02:56:36.307Z,17.23
2019-03-03T02:59:04.743Z,13.67
2019-03-03T03:01:34.769Z,15.00
2019-03-03T03:04:03.176Z,16.83
2019-03-03T03:06:36.001Z,16.63
2019-03-03T03:09:09.616Z,17.73
2019-03-03T03:11:42.532Z,17.77
2019-03-03T03:14:12.617Z,17.17
2019-03-03T03:16:48.395Z,23.30
2019-03-03T03:19:34.402Z,16.00
2019-03-03T03:22:19.299Z,20.90
2019-03-03T03:24:49.324Z,20.57
2019-03-03T03:27:35.649Z,21.70
2019-03-03T03:30:20.426Z,19.07
2019-03-03T03:32:50.462Z,12.43
2019-03-03T03:35:23.154Z,19.73
2019-03-03T03:37:55.824Z,14.77
2019-03-03T03:40:25.795Z,19.63
2019-03-03T03:43:11.017Z,19.97
2019-03-03T03:45:46.826Z,21.23
2019-03-03T03:48:25.656Z,18.07
2019-03-03T03:50:55.717Z,19.13
2019-03-03T03:53:25.731Z,18.93
2019-03-03T03:55:58.881Z,24.53
2019-03-03T03:58:28.907Z,26.13
2019-03-03T04:01:07.716Z,23.57
2019-03-03T04:03:43.479Z,20.33
2019-03-03T04:06:30.043Z,23.53
2019-03-03T04:09:01.896Z,25.77
2019-03-03T04:11:47.927Z,20.83
2019-03-03T04:14:18.006Z,16.33
2019-03-03T04:17:04.412Z,16.37
2019-03-03T04:19:34.477Z,16.30
2019-03-03T04:22:04.498Z,24.13
2019-03-03T04:24:50.929Z,16.60
2019-03-03T04:27:32.884Z,18.70
2019-03-03T04:30:08.944Z,15.97
2019-03-03T04:32:39.292Z,15.37
2019-03-03T04:35:09.345Z,22.17
2019-03-03T04:37:57.626Z,19.07
2019-03-03T04:40:33.648Z,17.67
2019-03-03T04:43:21.782Z,16.03
2019-03-03T04:45:54.619Z,19.90
2019-03-03T04:48:24.617Z,15.00
2019-03-03T04:51:11.063Z,17.17
2019-03-03T04:53:57.566Z,13.40
2019-03-03T04:56:36.466Z,15.30
2019-03-03T04:59:06.512Z,17.33
2019-03-03T05:01:39.311Z,16.23
2019-03-03T05:04:09.346Z,15.63
2019-03-03T05:06:39.409Z,14.67
2019-03-03T05:09:09.429Z,15.20
2019-03-03T05:12:14.052Z,12.77
2019-03-03T05:14:43.873Z,12.77
2019-03-03T05:17:30.397Z,13.37
2019-03-03T05:20:15.617Z,13.80
2019-03-03T05:22:43.979Z,14.13
2019-03-03T05:25:12.382Z,9.73
2019-03-03T05:27:41.786Z,11.00
2019-03-03T05:30:14.051Z,9.73
2019-03-03T05:32:42.467Z,10.73
2019-03-03T05:35:10.906Z,11.17
2019-03-03T05:37:39.288Z,10.93
2019-03-03T05:40:08.232Z,8.23
2019-03-03T05:42:36.586Z,11.70
2019-03-03T05:45:06.231Z,10.77
2019-03-03T05:47:34.650Z,12.20
2019-03-03T05:50:03.241Z,16.47
2019-03-03T05:52:32.176Z,12.27
2019-03-03T05:55:00.572Z,11.93
2019-03-03T05:57:28.984Z,14.73
2019-03-03T05:59:57.435Z,11.07
2019-03-03T06:02:25.847Z,9.70
2019-03-03T06:04:54.238Z,13.00
2019-03-03T06:07:22.666Z,11.10
2019-03-03T06:09:51.079Z,11.27
2019-03-03T06:12:19.482Z,10.53
2019-03-03T06:14:47.891Z,11.23
2019-03-03T06:17:16.294Z,8.33
2019-03-03T06:19:44.868Z,11.97
2019-03-03T06:22:13.278Z,7.90
2019-03-03T06:24:41.680Z,7.60
2019-03-03T06:27:10.108Z,10.70
2019-03-03T06:29:38.513Z,11.03
2019-03-03T06:32:06.924Z,8.63
2019-03-03T06:34:35.299Z,10.80
2019-03-03T06:37:03.727Z,7.93
2019-03-03T06:39:32.161Z,12.90
2019-03-03T06:42:00.568Z,10.97
2019-03-03T06:44:28.948Z,11.70
2019-03-03T06:46:57.384Z,10.40
2019-03-03T06:49:25.781Z,8.53
2019-03-03T06:51:54.191Z,9.33
2019-03-03T06:54:22.598Z,8.57
2019-03-03T06:56:51.057Z,9.03
2019-03-03T06:59:19.465Z,9.73
2019-03-03T07:01:47.855Z,13.57
2019-03-03T07:04:16.273Z,14.10
2019-03-03T07:06:44.680Z,11.47
2019-03-03T07:09:13.076Z,9.60
2019-03-03T07:11:41.481Z,12.10
2019-03-03T07:14:09.862Z,11.63
2019-03-03T07:16:38.291Z,11.03
2019-03-03T07:19:06.669Z,9.33
2019-03-03T07:21:35.076Z,15.53
2019-03-03T07:24:03.463Z,11.00
2019-03-03T07:26:31.874Z,11.43
2019-03-03T07:29:00.287Z,8.90
2019-03-03T07:31:28.687Z,13.90
2019-03-03T07:33:57.446Z,10.17
2019-03-03T07:36:25.812Z,10.10
2019-03-03T07:38:54.203Z,9.40
2019-03-03T07:41:22.599Z,9.40
2019-03-03T07:43:50.979Z,7.73
2019-03-03T07:46:19.439Z,7.53
2019-03-03T07:48:47.827Z,9.80
2019-03-03T07:51:16.207Z,11.53
2019-03-03T07:53:44.632Z,8.40
2019-03-03T07:56:13.029Z,7.17
2019-03-03T07:58:41.414Z,8.13
2019-03-03T08:01:09.802Z,14.13
2019-03-03T08:03:38.274Z,7.10
2019-03-03T08:06:07.683Z,11.37
2019-03-03T08:08:36.187Z,10.57
2019-03-03T08:11:04.530Z,9.03
2019-03-03T08:13:32.941Z,9.17
2019-03-03T08:16:01.350Z,8.27
2019-03-03T08:18:29.732Z,8.00
2019-03-03T08:20:58.135Z,7.70
2019-03-03T08:23:26.541Z,7.33
2019-03-03T08:25:54.952Z,8.03
2019-03-03T08:28:23.334Z,11.33
2019-03-03T08:30:51.753Z,8.30
2019-03-03T08:33:20.148Z,9.63
2019-03-03T08:35:48.560Z,9.20
2019-03-03T08:38:16.974Z,10.97
2019-03-03T08:40:45.394Z,7.33
2019-03-03T08:43:15.445Z,9.27
2019-03-03T08:46:00.520Z,8.30
2019-03-03T08:48:30.556Z,8.23
2019-03-03T08:51:00.580Z,7.07
2019-03-03T08:53:30.628Z,6.90
2019-03-03T08:56:12.385Z,6.60
2019-03-03T08:58:42.439Z,6.20
2019-03-03T09:01:21.358Z,7.67
2019-03-03T09:04:07.592Z,8.43
2019-03-03T09:06:43.511Z,7.40
2019-03-03T09:09:17.545Z,9.13
2019-03-03T09:11:50.322Z,9.37
2019-03-03T09:14:20.409Z,4.70
2019-03-03T09:16:59.170Z,8.40
2019-03-03T09:19:34.930Z,5.97
2019-03-03T09:22:10.561Z,5.73
2019-03-03T09:24:52.721Z,5.93
2019-03-03T09:27:25.383Z,7.50
2019-03-03T09:30:11.637Z,7.40
2019-03-03T09:32:44.643Z,5.10
2019-03-03T09:35:17.745Z,4.70
2019-03-03T09:37:57.068Z,4.87
2019-03-03T09:40:36.167Z,6.27
2019-03-03T09:43:06.169Z,7.23
2019-03-03T09:45:41.982Z,5.83
2019-03-03T09:48:14.858Z,6.20
2019-03-03T09:51:00.992Z,6.17
2019-03-03T09:53:37.110Z,6.47
2019-03-03T09:56:10.153Z,6.83
2019-03-03T09:58:40.170Z,6.73
2019-03-03T10:01:15.904Z,7.43
2019-03-03T10:03:54.388Z,6.33
2019-03-03T10:06:30.233Z,6.00
2019-03-03T10:09:00.221Z,7.50
2019-03-03T10:11:33.036Z,7.43
2019-03-03T10:14:18.351Z,6.63
2019-03-03T10:16:48.379Z,9.37
2019-03-03T10:19:20.956Z,8.83
2019-03-03T10:22:03.271Z,6.60
2019-03-03T10:24:33.322Z,9.53
2019-03-03T10:27:03.367Z,9.23
2019-03-03T10:29:42.236Z,10.40
2019-03-03T10:32:12.238Z,9.53
2019-03-03T10:34:45.195Z,8.87
2019-03-03T10:37:27.119Z,9.20
2019-03-03T10:40:09.047Z,6.77
2019-03-03T10:42:39.035Z,8.00
2019-03-03T10:45:25.932Z,7.67
2019-03-03T10:47:55.962Z,7.57
2019-03-03T10:50:26.029Z,10.77
2019-03-03T10:52:56.054Z,8.93
2019-03-03T10:55:38.048Z,13.43
2019-03-03T10:58:08.084Z,6.37
2019-03-03T11:00:44.074Z,10.50
2019-03-03T11:03:23.048Z,7.50
2019-03-03T11:06:11.639Z,9.63
2019-03-03T11:08:41.674Z,10.80
2019-03-03T11:11:17.410Z,8.83
2019-03-03T11:13:50.218Z,8.40
2019-03-03T11:16:22.747Z,8.57
2019-03-03T11:19:07.848Z,10.57
2019-03-03T11:21:37.821Z,7.67
2019-03-03T11:24:19.702Z,10.03
2019-03-03T11:26:49.677Z,11.87
2019-03-03T11:29:28.666Z,8.13
2019-03-03T11:31:58.643Z,8.00
2019-03-03T11:34:31.340Z,10.60
2019-03-03T11:37:16.575Z,8.17
2019-03-03T11:39:46.616Z,8.87
2019-03-03T11:42:19.786Z,8.33
2019-03-03T11:44:55.827Z,12.43
2019-03-03T11:47:25.884Z,9.77
2019-03-03T11:49:58.861Z,9.10
2019-03-03T11:52:28.908Z,8.20
2019-03-03T11:55:08.105Z,5.63
2019-03-03T11:57:40.839Z,10.47
2019-03-03T12:00:24.498Z,10.10
2019-03-03T12:02:54.524Z,11.43
2019-03-03T12:05:40.679Z,12.87
2019-03-03T12:08:13.553Z,8.53
2019-03-03T12:10:43.562Z,12.87
2019-03-03T12:13:29.566Z,10.83
2019-03-03T12:15:59.610Z,9.83
2019-03-03T12:18:29.641Z,16.43
2019-03-03T12:21:00.256Z,12.87
2019-03-03T12:23:30.301Z,16.73
2019-03-03T12:26:03.038Z,18.67
2019-03-03T12:28:35.733Z,16.23
2019-03-03T12:31:08.461Z,16.07
2019-03-03T12:33:54.876Z,16.33
2019-03-03T12:36:37.105Z,19.97
2019-03-03T12:39:10.398Z,19.10
2019-03-03T12:41:43.177Z,16.30
2019-03-03T12:44:13.196Z,17.40
2019-03-03T12:46:45.893Z,19.80
2019-03-03T12:49:15.952Z,18.23
2019-03-03T12:51:48.914Z,22.67
2019-03-03T12:54:34.149Z,18.70
2019-03-03T12:57:20.320Z,18.97
2019-03-03T13:00:05.378Z,15.23
2019-03-03T13:02:41.116Z,21.27
2019-03-03T13:05:11.134Z,15.80
2019-03-03T13:07:41.184Z,18.53
2019-03-03T13:10:26.514Z,17.53
2019-03-03T13:13:02.511Z,19.83
2019-03-03T13:15:50.514Z,17.03
2019-03-03T13:18:23.304Z,18.07
2019-03-03T13:20:53.299Z,16.47
2019-03-03T13:23:29.505Z,19.03
2019-03-03T13:26:11.333Z,16.60
2019-03-03T13:28:47.305Z,17.10
2019-03-03T13:31:17.321Z,13.87
2019-03-03T13:33:50.217Z,17.20
2019-03-03T13:36:36.642Z,15.17
2019-03-03T13:39:12.534Z,18.90
2019-03-03T13:41:45.441Z,14.47
2019-03-03T13:44:13.807Z,14.47
2019-03-03T13:46:42.211Z,15.37
2019-03-03T13:49:10.611Z,15.37
2019-03-03T13:51:39.023Z,15.27
2019-03-03T13:54:07.392Z,13.37
2019-03-03T13:56:35.789Z,15.53
2019-03-03T13:59:04.183Z,17.70
2019-03-03T14:01:32.570Z,19.07
2019-03-03T14:04:00.970Z,15.13
2019-03-03T14:06:29.356Z,15.03
2019-03-03T14:08:57.743Z,12.77
2019-03-03T14:11:29.592Z,17.10
2019-03-03T14:13:57.998Z,13.37
2019-03-03T14:16:26.380Z,13.07
2019-03-03T14:18:54.751Z,17.57
2019-03-03T14:21:23.160Z,14.70
2019-03-03T14:23:51.565Z,14.73
2019-03-03T14:26:19.967Z,16.20
2019-03-03T14:28:48.385Z,13.63
2019-03-03T14:31:16.755Z,14.13
2019-03-03T14:33:45.187Z,19.27
2019-03-03T14:36:13.563Z,13.03
2019-03-03T14:38:41.979Z,15.67
2019-03-03T14:41:10.347Z,17.20
2019-03-03T14:43:38.828Z,11.53
2019-03-03T14:46:07.222Z,16.30
2019-03-03T14:48:35.607Z,13.37
2019-03-03T14:51:04.016Z,16.60
2019-03-03T14:53:32.374Z,11.30
2019-03-03T14:56:00.796Z,20.43
2019-03-03T14:58:29.345Z,13.87
2019-03-03T15:00:57.723Z,14.17
2019-03-03T15:03:26.143Z,14.93
2019-03-03T15:05:54.519Z,17.23
2019-03-03T15:08:22.936Z,18.50
2019-03-03T15:10:51.332Z,17.13
2019-03-03T15:13:19.831Z,16.47
2019-03-03T15:15:48.225Z,17.90
2019-03-03T15:18:16.611Z,17.00
2019-03-03T15:20:45.022Z,19.37
2019-03-03T15:23:13.414Z,16.57
2019-03-03T15:25:41.943Z,20.57
2019-03-03T15:28:10.335Z,13.50
2019-03-03T15:30:38.816Z,17.10
2019-03-03T15:33:07.275Z,15.87
2019-03-03T15:35:35.666Z,22.13
2019-03-03T15:38:04.082Z,19.07
2019-03-03T15:40:32.461Z,17.70
2019-03-03T15:43:01.389Z,18.00
2019-03-03T15:45:29.920Z,19.80
2019-03-03T15:47:58.304Z,13.83
2019-03-03T15:50:26.822Z,18.97
2019-03-03T15:52:55.223Z,20.67
2019-03-03T15:55:26.921Z,17.23
2019-03-03T15:57:55.318Z,16.63
2019-03-03T16:00:39.013Z,20.93
2019-03-03T16:03:07.376Z,17.53
2019-03-03T16:05:35.902Z,20.80
2019-03-03T16:08:04.336Z,16.23
2019-03-03T16:10:32.749Z,24.67
2019-03-03T16:13:01.122Z,13.57
2019-03-03T16:15:29.538Z,18.33
2019-03-03T16:17:57.952Z,16.43
2019-03-03T16:20:26.359Z,15.80
2019-03-03T16:22:54.740Z,13.57
2019-03-03T16:25:23.791Z,16.53
2019-03-03T16:27:52.133Z,14.23
2019-03-03T16:30:21.373Z,16.97
2019-03-03T16:32:49.749Z,19.53
2019-03-03T16:35:18.167Z,17.73
2019-03-03T16:37:46.593Z,20.70
2019-03-03T16:40:22.546Z,16.50
2019-03-03T16:42:50.939Z,18.00
2019-03-03T16:45:19.414Z,18.33
2019-03-03T16:47:47.811Z,21.03
2019-03-03T16:50:20.890Z,19.47
2019-03-03T16:52:49.341Z,19.07
2019-03-03T16:55:19.768Z,20.70
2019-03-03T16:57:48.171Z,19.10
2019-03-03T17:00:29.654Z,21.17
2019-03-03T17:02:58.067Z,15.13
2019-03-03T17:05:27.828Z,23.37
2019-03-03T17:07:56.206Z,16.80
2019-03-03T17:10:24.632Z,19.27
2019-03-03T17:12:52.999Z,13.30
2019-03-03T17:15:27.659Z,18.73
2019-03-03T17:17:56.081Z,14.83
2019-03-03T17:20:24.460Z,21.70
2019-03-03T17:22:52.859Z,18.63
2019-03-03T17:25:22.780Z,16.60
2019-03-03T17:27:51.176Z,15.50
2019-03-03T17:30:21.301Z,16.23
2019-03-03T17:32:49.692Z,12.10
2019-03-03T17:35:18.105Z,17.20
2019-03-03T17:37:46.541Z,16.37
2019-03-03T17:40:24.966Z,17.17
2019-03-03T17:42:53.378Z,15.53
2019-03-03T17:45:22.707Z,15.27
2019-03-03T17:47:51.169Z,18.30
2019-03-03T17:50:24.693Z,18.20
2019-03-03T17:52:53.145Z,17.53
2019-03-03T17:55:21.508Z,12.33
2019-03-03T17:57:49.948Z,16.27
2019-03-03T18:00:24.659Z,16.27
2019-03-03T18:02:53.040Z,16.93
2019-03-03T18:05:21.448Z,17.00
2019-03-03T18:07:50.027Z,14.87
2019-03-03T18:10:18.503Z,14.90
2019-03-03T18:12:46.891Z,15.87
2019-03-03T18:15:16.117Z,18.23
2019-03-03T18:17:44.596Z,19.60
2019-03-03T18:20:15.775Z,18.73
2019-03-03T18:22:44.195Z,19.67
2019-03-03T18:25:14.722Z,16.17
2019-03-03T18:27:43.145Z,19.03
2019-03-03T18:30:14.752Z,16.43
2019-03-03T18:32:43.133Z,14.07
2019-03-03T18:35:13.039Z,13.60
2019-03-03T18:37:41.603Z,17.70
2019-03-03T18:40:12.367Z,13.43
2019-03-03T18:42:40.753Z,15.83
2019-03-03T18:45:13.820Z,13.90
2019-03-03T18:47:42.224Z,16.27
2019-03-03T18:50:15.840Z,13.20
2019-03-03T18:52:44.191Z,17.50
2019-03-03T18:55:12.682Z,10.57
2019-03-03T18:57:41.098Z,13.67
2019-03-03T19:00:18.517Z,12.27
2019-03-03T19:02:46.919Z,10.40
2019-03-03T19:05:17.611Z,13.03
2019-03-03T19:07:45.375Z,15.90
2019-03-03T19:10:22.438Z,9.70
2019-03-03T19:12:50.820Z,11.90
2019-03-03T19:15:20.388Z,12.50
2019-03-03T19:17:48.766Z,10.13
2019-03-03T19:20:20.571Z,13.63
2019-03-03T19:22:49.012Z,9.33
2019-03-03T19:25:17.462Z,10.47
2019-03-03T19:27:45.869Z,13.00
2019-03-03T19:30:19.495Z,13.47
2019-03-03T19:32:50.853Z,13.57
2019-03-03T19:35:21.996Z,11.50
2019-03-03T19:37:50.389Z,10.53
2019-03-03T19:40:19.258Z,10.87
2019-03-03T19:42:47.603Z,9.17
2019-03-03T19:45:21.868Z,8.93
2019-03-03T19:47:50.264Z,9.17
2019-03-03T19:50:18.651Z,9.20
2019-03-03T19:52:47.076Z,9.93
2019-03-03T19:55:16.804Z,5.83
2019-03-03T19:57:45.186Z,10.37
2019-03-03T20:00:22.847Z,9.03
2019-03-03T20:02:51.187Z,11.70
2019-03-03T20:05:21.240Z,8.17
2019-03-03T20:07:49.649Z,8.07
2019-03-03T20:10:18.037Z,9.77
2019-03-03T20:12:46.433Z,6.77
2019-03-03T20:15:14.809Z,9.30
2019-03-03T20:17:45.583Z,13.47
2019-03-03T20:20:19.142Z,7.07
2019-03-03T20:22:47.548Z,9.27
2019-03-03T20:25:15.922Z,10.27
2019-03-03T20:27:44.985Z,10.90
2019-03-03T20:30:20.914Z,7.70
2019-03-03T20:32:49.337Z,6.87
2019-03-03T20:35:17.741Z,6.93
2019-03-03T20:37:47.043Z,10.47
2019-03-03T20:40:17.100Z,9.10
2019-03-03T20:42:45.546Z,10.13
2019-03-03T20:45:20.030Z,7.50
2019-03-03T20:47:48.441Z,7.20
2019-03-03T20:50:18.796Z,9.67
2019-03-03T20:52:47.246Z,8.03
2019-03-03T20:55:17.764Z,7.70
2019-03-03T20:57:46.181Z,8.07
2019-03-03T21:00:19.547Z,5.73
2019-03-03T21:02:47.970Z,8.63
2019-03-03T21:05:16.348Z,9.30
2019-03-03T21:07:51.233Z,8.83
2019-03-03T21:10:27.996Z,7.07
2019-03-03T21:12:56.400Z,7.63
2019-03-03T21:15:24.811Z,7.13
2019-03-03T21:17:53.191Z,5.27
2019-03-03T21:20:22.264Z,4.33
2019-03-03T21:22:50.627Z,7.50
2019-03-03T21:25:19.553Z,8.20
2019-03-03T21:27:47.900Z,6.07
2019-03-03T21:30:23.906Z,9.00
2019-03-03T21:32:52.501Z,6.27
2019-03-03T21:35:20.930Z,7.57
2019-03-03T21:37:49.348Z,5.93
2019-03-03T21:40:19.919Z,9.00
2019-03-03T21:42:48.394Z,6.77
2019-03-03T21:45:20.528Z,4.83
2019-03-03T21:47:48.932Z,8.07
2019-03-03T21:50:22.337Z,7.70
2019-03-03T21:52:50.731Z,6.80
2019-03-03T21:55:19.153Z,6.23
2019-03-03T21:57:47.536Z,6.20
2019-03-03T22:00:30.188Z,6.23
2019-03-03T22:02:58.565Z,8.90
2019-03-03T22:05:26.992Z,7.57
2019-03-03T22:07:55.386Z,5.77
2019-03-03T22:10:30.327Z,6.03
2019-03-03T22:13:15.131Z,5.93
2019-03-03T22:15:43.606Z,6.37
2019-03-03T22:18:12.012Z,4.73
2019-03-03T22:20:40.387Z,7.03
2019-03-03T22:23:08.804Z,5.20
2019-03-03T22:25:37.206Z,4.50
2019-03-03T22:28:05.692Z,5.33
2019-03-03T22:30:34.127Z,5.43
2019-03-03T22:33:02.506Z,7.17
2019-03-03T22:35:30.926Z,5.50
2019-03-03T22:37:59.294Z,5.80
2019-03-03T22:40:27.697Z,3.10
2019-03-03T22:42:56.062Z,7.17
2019-03-03T22:45:30.062Z,4.50
2019-03-03T22:47:58.450Z,4.50
2019-03-03T22:50:26.822Z,4.63
2019-03-03T22:52:55.244Z,4.07
2019-03-03T22:55:23.626Z,8.40
2019-03-03T22:57:52.005Z,5.50
2019-03-03T23:00:47.390Z,5.67
2019-03-03T23:03:30.832Z,3.57
2019-03-03T23:06:23.332Z,3.73
2019-03-03T23:09:12.834Z,5.70
2019-03-03T23:11:59.022Z,5.57
2019-03-03T23:14:45.699Z,5.20
2019-03-03T23:17:17.348Z,4.50
2019-03-03T23:20:04.200Z,5.73
2019-03-03T23:22:47.583Z,8.97
2019-03-03T23:25:22.120Z,8.43
2019-03-03T23:27:50.535Z,6.77
2019-03-03T23:30:18.954Z,6.33
2019-03-03T23:32:47.359Z,6.63
2019-03-03T23:35:15.736Z,6.73
2019-03-03T23:37:44.147Z,6.00
2019-03-03T23:40:12.556Z,5.17
2019-03-03T23:42:40.938Z,3.00
2019-03-03T23:45:10.675Z,4.77
2019-03-03T23:47:39.097Z,4.87
2019-03-03T23:50:09.272Z,4.47
2019-03-03T23:52:37.680Z,7.57
2019-03-03T23:55:07.940Z,5.80
2019-03-03T23:57:36.384Z,6.13
